Time;durP1;ratioP1;P1;durP2;ratioP2;P2;SDS_P1;SDS_P2;PMS_P1;PMS_P2;Temp;Humidity;BMP_temperature;BMP_pressure;BME280_temperature;BME280_humidity;BME280_pressure;Samples;Min_cycle;Max_cycle;Signal;HPM_P1;HPM_P2
2022/10/14 00:05:21;;;;;;;18.37;5.80;;;;;;;10.40;59.75;101042.56;31302417;28;20041;-86
2022/10/14 00:20:23;;;;;;;11.60;6.23;;;;;;;10.19;61.06;101038.00;31352672;28;20061;-85
2022/10/14 00:35:25;;;;;;;13.80;6.60;;;;;;;10.06;62.18;101027.94;31334977;28;20060;-85
2022/10/14 00:50:27;;;;;;;18.40;6.27;;;;;;;9.80;62.99;101034.56;31348613;28;20060;-85
2022/10/14 01:05:35;;;;;;;14.30;6.73;;;;;;;9.70;64.14;101027.22;31331698;28;20155;-85
2022/10/14 01:20:37;;;;;;;14.53;7.00;;;;;;;9.69;63.23;101031.09;31364675;28;20060;-86
2022/10/14 01:35:48;;;;;;;14.93;6.47;;;;;;;9.70;64.76;101030.69;31329387;28;20408;-85
2022/10/14 01:50:54;;;;;;;14.37;6.17;;;;;;;9.82;65.44;101034.97;31348600;28;20057;-86
2022/10/14 02:06:03;;;;;;;16.97;7.53;;;;;;;9.97;64.20;101031.03;31366099;28;20060;-84
2022/10/14 02:21:11;;;;;;;11.87;6.10;;;;;;;9.98;65.92;101026.41;31380044;28;20053;-84
2022/10/14 02:36:17;;;;;;;13.93;7.07;;;;;;;10.08;66.58;101033.75;31367079;28;20427;-86
2022/10/14 02:51:19;;;;;;;15.73;6.77;;;;;;;10.14;67.16;101024.81;31335032;28;20059;-86
2022/10/14 03:06:21;;;;;;;16.07;8.67;;;;;;;10.15;67.57;101036.44;31336461;28;20044;-86
2022/10/14 03:21:22;;;;;;;21.40;7.53;;;;;;;10.22;66.74;101031.00;31346878;28;20099;-85
2022/10/14 03:36:24;;;;;;;23.20;8.57;;;;;;;10.35;67.30;101029.41;31338337;28;20052;-86
2022/10/14 03:51:26;;;;;;;17.63;7.73;;;;;;;10.39;68.31;101030.19;31326336;28;20057;-84
2022/10/14 04:06:29;;;;;;;17.13;7.97;;;;;;;10.39;69.71;101035.63;31327663;28;20053;-84
2022/10/14 04:21:31;;;;;;;14.27;7.30;;;;;;;10.44;69.14;101037.91;31351951;28;20060;-85
2022/10/14 04:36:33;;;;;;;13.60;7.20;;;;;;;10.57;68.43;101039.00;31303485;28;20056;-83
2022/10/14 04:51:35;;;;;;;15.80;7.67;;;;;;;10.77;68.69;101044.72;31320059;28;20069;-85
2022/10/14 05:06:37;;;;;;;21.40;7.67;;;;;;;11.02;68.24;101043.81;31319239;28;20495;-84
2022/10/14 05:21:39;;;;;;;22.00;8.43;;;;;;;11.31;68.44;101055.25;31332195;28;20045;-85
2022/10/14 05:36:41;;;;;;;16.43;8.80;;;;;;;11.68;67.66;101063.50;31347069;28;20410;-85
2022/10/14 05:51:42;;;;;;;19.03;7.53;;;;;;;12.05;67.70;101064.69;31358212;28;20056;-85
2022/10/14 06:06:45;;;;;;;15.20;7.70;;;;;;;12.66;64.03;101067.50;31367119;28;20045;-84
2022/10/14 06:21:46;;;;;;;11.97;5.93;;;;;;;13.08;63.18;101077.06;31390954;28;20056;-85
2022/10/14 06:36:51;;;;;;;10.50;5.60;;;;;;;13.65;60.92;101083.22;31357905;28;20049;-77
2022/10/14 06:51:53;;;;;;;29.90;13.97;;;;;;;14.28;58.09;101071.53;31344228;28;20140;-76
2022/10/14 07:06:57;;;;;;;13.13;6.10;;;;;;;14.54;57.02;101076.13;31340036;28;20045;-77
2022/10/14 07:21:59;;;;;;;17.40;6.67;;;;;;;14.77;56.05;101079.94;31326350;28;20130;-76
2022/10/14 07:37:01;;;;;;;11.00;6.00;;;;;;;15.01;55.56;101084.88;31312481;28;20091;-77
2022/10/14 07:52:03;;;;;;;11.23;5.27;;;;;;;15.33;54.60;101075.94;31332337;28;20065;-78
2022/10/14 08:07:05;;;;;;;23.57;10.33;;;;;;;15.51;51.58;101072.75;31319625;28;20549;-75
2022/10/14 08:22:08;;;;;;;38.20;22.10;;;;;;;15.81;49.90;101077.13;31321928;28;20057;-77
2022/10/14 08:37:13;;;;;;;21.17;6.97;;;;;;;16.24;48.67;101062.28;31330479;28;20044;-76
2022/10/14 08:52:17;;;;;;;24.07;10.10;;;;;;;16.50;46.02;101066.66;31349168;28;20122;-76
2022/10/14 09:07:20;;;;;;;29.43;11.83;;;;;;;16.63;45.75;101061.97;31321605;28;20053;-76
2022/10/14 09:22:23;;;;;;;25.30;9.63;;;;;;;16.85;45.49;101055.84;31343893;28;20057;-76
2022/10/14 09:37:36;;;;;;;14.63;4.97;;;;;;;17.14;43.62;101058.47;31327133;28;20414;-77
2022/10/14 09:52:38;;;;;;;8.93;3.87;;;;;;;17.50;43.06;101060.81;31342539;28;20485;-76
2022/10/14 10:07:40;;;;;;;10.47;3.97;;;;;;;17.68;41.61;101050.06;31343835;28;20076;-77
2022/10/14 10:22:42;;;;;;;7.43;3.00;;;;;;;18.02;40.21;101052.78;31341475;28;20053;-76
2022/10/14 10:38:19;;;;;;;5.97;2.20;;;;;;;19.89;34.69;101036.84;31361544;28;20049;-77
2022/10/14 10:53:31;;;;;;;7.55;2.50;;;;;;;19.67;35.89;101037.00;31339826;28;20416;-75
2022/10/14 11:24:53;;;;;;;6.57;2.60;;;;;;;18.16;37.31;101037.03;31344705;28;20045;-76
2022/10/14 11:40:24;;;;;;;14.37;8.10;;;;;;;17.87;37.19;101032.53;31376613;28;20075;-76
2022/10/14 11:55:33;;;;;;;4.37;1.67;;;;;;;18.10;38.35;101030.56;31319519;28;20161;-79
2022/10/14 12:10:44;;;;;;;32.53;18.00;;;;;;;18.37;38.82;101017.00;31352161;28;20051;-78
2022/10/14 12:26:05;;;;;;;4.53;2.00;;;;;;;17.89;38.19;101013.63;31316526;28;20088;-76
2022/10/14 12:41:37;;;;;;;4.83;2.53;;;;;;;17.76;38.73;101012.13;31324523;28;20049;-77
2022/10/14 12:56:51;;;;;;;4.77;2.30;;;;;;;17.22;38.83;101013.91;31350115;28;20061;-75
2022/10/14 13:11:54;;;;;;;5.93;2.20;;;;;;;16.84;40.57;101000.22;31335797;28;20415;-77
2022/10/14 13:27:21;;;;;;;4.93;2.07;;;;;;;16.52;41.13;101006.69;31335215;28;20049;-76
2022/10/14 13:42:33;;;;;;;8.33;1.90;;;;;;;16.53;40.84;100996.50;31343023;28;20053;-79
2022/10/14 13:57:35;;;;;;;4.57;2.00;;;;;;;16.48;41.53;101005.25;31352657;28;20048;-76
2022/10/14 14:13:02;;;;;;;9.60;5.07;;;;;;;16.36;41.41;101012.22;31359635;28;20143;-75
2022/10/14 14:28:07;;;;;;;31.03;12.37;;;;;;;16.25;41.60;101014.53;31347345;28;20051;-76
2022/10/14 14:43:09;;;;;;;6.00;3.47;;;;;;;16.08;41.79;101011.06;31366116;28;20079;-76
2022/10/14 14:58:37;;;;;;;6.77;2.70;;;;;;;15.83;42.13;101005.50;31342626;28;20080;-79
2022/10/14 15:13:39;;;;;;;13.83;3.83;;;;;;;15.65;43.11;101016.91;31336636;28;20099;-76
2022/10/14 15:28:40;;;;;;;7.07;4.10;;;;;;;15.39;44.11;101020.69;31351558;28;20079;-81
2022/10/14 15:43:42;;;;;;;19.27;7.00;;;;;;;15.23;44.42;101024.22;31336247;28;20076;-77
2022/10/14 15:58:44;;;;;;;34.13;14.13;;;;;;;15.14;45.33;101026.75;31348634;28;20077;-75
2022/10/14 16:13:46;;;;;;;27.50;12.50;;;;;;;14.97;46.17;101031.47;31337404;28;20064;-77
2022/10/14 16:28:48;;;;;;;8.07;4.10;;;;;;;14.82;46.35;101028.28;31358067;28;20140;-77
2022/10/14 16:43:50;;;;;;;10.87;4.57;;;;;;;14.77;47.35;101044.41;31368665;28;20057;-79
2022/10/14 16:58:52;;;;;;;8.20;4.17;;;;;;;14.52;47.26;101044.94;31433741;28;20080;-86
2022/10/14 17:13:56;;;;;;;9.13;4.20;;;;;;;14.48;47.85;101042.28;31434943;28;20056;-88
2022/10/14 17:28:58;;;;;;;7.30;4.07;;;;;;;14.54;48.73;101040.59;31446380;28;20099;-86
2022/10/14 17:44:00;;;;;;;9.93;4.73;;;;;;;14.62;48.96;101047.47;31348561;28;20526;-86
2022/10/14 17:59:09;;;;;;;34.27;16.37;;;;;;;14.55;50.27;101042.16;31359268;28;20579;-86
2022/10/14 18:14:12;;;;;;;59.97;26.80;;;;;;;14.44;50.69;101049.78;31348559;28;20054;-88
2022/10/14 18:29:14;;;;;;;14.23;5.83;;;;;;;14.50;49.34;101050.84;31323753;28;20147;-86
2022/10/14 18:44:16;;;;;;;9.53;4.43;;;;;;;14.57;47.64;101056.16;31338756;28;20060;-86
2022/10/14 18:59:20;;;;;;;7.53;3.40;;;;;;;14.62;47.16;101058.41;31318793;28;20136;-87
2022/10/14 19:14:22;;;;;;;8.13;3.50;;;;;;;14.62;47.29;101065.81;31338547;28;20053;-87
2022/10/14 19:29:24;;;;;;;9.50;4.80;;;;;;;14.57;47.53;101071.78;31368153;28;20056;-85
2022/10/14 19:44:26;;;;;;;7.43;4.37;;;;;;;14.54;48.04;101072.63;31376099;28;20470;-86
2022/10/14 19:59:28;;;;;;;9.73;3.83;;;;;;;14.42;47.10;101076.75;31351960;28;20477;-86
2022/10/14 20:14:29;;;;;;;9.23;4.97;;;;;;;14.36;47.39;101075.69;31334645;28;20052;-88
2022/10/14 20:29:34;;;;;;;9.30;3.13;;;;;;;14.13;46.70;101083.94;31341953;28;20467;-87
2022/10/14 20:44:36;;;;;;;13.33;3.43;;;;;;;13.83;46.44;101084.84;31322989;28;20048;-85
2022/10/14 20:59:40;;;;;;;8.87;3.70;;;;;;;13.45;47.12;101081.59;31327926;28;20050;-87
2022/10/14 21:14:42;;;;;;;7.47;2.90;;;;;;;12.97;47.72;101091.63;31353536;28;20054;-85
2022/10/14 21:29:44;;;;;;;9.20;3.40;;;;;;;12.72;48.21;101101.31;31338859;28;20044;-86
2022/10/14 21:44:46;;;;;;;8.20;3.93;;;;;;;12.60;48.60;101106.09;31321070;28;20080;-88
2022/10/14 21:59:47;;;;;;;12.37;4.77;;;;;;;12.41;48.87;101105.94;31327552;28;20057;-86
2022/10/14 22:14:49;;;;;;;16.43;5.77;;;;;;;12.09;48.67;101111.72;31377406;28;20057;-88
2022/10/14 22:29:51;;;;;;;19.27;6.30;;;;;;;11.94;48.84;101100.97;31345988;28;20136;-86
2022/10/14 22:44:53;;;;;;;10.53;4.20;;;;;;;11.80;49.30;101103.84;31354740;28;20045;-87
2022/10/14 22:59:55;;;;;;;8.67;3.63;;;;;;;11.69;49.64;101108.56;31330471;28;20049;-86
2022/10/14 23:14:57;;;;;;;9.63;3.77;;;;;;;11.48;49.25;101114.16;31349117;28;20049;-86
2022/10/14 23:29:58;;;;;;;6.20;3.10;;;;;;;11.38;49.62;101109.56;31349222;28;20490;-87
2022/10/14 23:45:00;;;;;;;8.00;3.40;;;;;;;11.33;50.54;101123.59;31346229;28;20130;-86
